Time;durP1;ratioP1;P1;durP2;ratioP2;P2;SDS_P1;SDS_P2;PMS_P1;PMS_P2;Temp;Humidity;BMP_temperature;BMP_pressure;BME280_temperature;BME280_humidity;BME280_pressure;Samples;Min_cycle;Max_cycle;Signal;HPM_P1;HPM_P2
2022/05/19 00:02:11;;;;;;;28.02;19.20;;;18.30;99.90;;;;;;5014732;28;20048;-74
2022/05/19 00:04:37;;;;;;;26.77;19.48;;;18.20;99.90;;;;;;5014667;28;20111;-73
2022/05/19 00:07:04;;;;;;;27.63;20.70;;;18.20;99.90;;;;;;5015819;28;20073;-74
2022/05/19 00:09:30;;;;;;;25.38;19.73;;;18.20;99.90;;;;;;5015775;28;20116;-73
2022/05/19 00:11:58;;;;;;;29.70;20.65;;;18.20;99.90;;;;;;5016276;28;20045;-74
2022/05/19 00:14:24;;;;;;;29.73;20.67;;;18.30;99.90;;;;;;5032152;28;20379;-74
2022/05/19 00:16:50;;;;;;;28.90;20.90;;;18.30;99.90;;;;;;5014342;28;20057;-74
2022/05/19 00:19:18;;;;;;;28.13;20.90;;;18.30;99.90;;;;;;5015354;28;20045;-73
2022/05/19 00:21:44;;;;;;;30.50;22.02;;;18.30;99.90;;;;;;5014299;28;20046;-74
2022/05/19 00:24:10;;;;;;;29.35;22.27;;;18.30;99.90;;;;;;5014249;28;20084;-74
2022/05/19 00:26:36;;;;;;;29.17;21.10;;;18.20;99.90;;;;;;5015522;28;20076;-74
2022/05/19 00:29:02;;;;;;;27.10;20.35;;;18.20;99.90;;;;;;5015915;28;20471;-73
2022/05/19 00:31:29;;;;;;;26.50;21.10;;;18.20;99.90;;;;;;5014654;28;20509;-74
2022/05/19 00:33:56;;;;;;;30.90;22.33;;;18.20;99.90;;;;;;5015765;28;20403;-74
2022/05/19 00:36:21;;;;;;;33.75;21.85;;;18.20;99.90;;;;;;5015260;28;20132;-73
2022/05/19 00:38:47;;;;;;;30.20;21.10;;;18.10;99.90;;;;;;5014041;28;20134;-74
2022/05/19 00:41:15;;;;;;;31.98;21.77;;;18.10;99.90;;;;;;5015015;28;20399;-73
2022/05/19 00:43:44;;;;;;;27.23;20.85;;;18.10;99.90;;;;;;5014784;28;20046;-74
2022/05/19 00:46:20;;;;;;;27.58;21.08;;;18.10;99.90;;;;;;5015124;28;20050;-73
2022/05/19 00:48:54;;;;;;;;;;;18.00;99.90;;;;;;5014377;28;20108;-74
2022/05/19 00:51:36;;;;;;;31.08;22.08;;;17.90;99.90;;;;;;5014011;28;19921;-74
2022/05/19 00:54:05;;;;;;;30.83;21.08;;;17.80;99.90;;;;;;5015063;28;20371;-74
2022/05/19 00:56:36;;;;;;;26.92;20.98;;;17.80;99.90;;;;;;5013984;28;20050;-74
2022/05/19 00:59:18;;;;;;;28.30;20.95;;;17.80;99.90;;;;;;5014169;28;20049;-74
2022/05/19 01:01:44;;;;;;;27.33;20.27;;;17.80;99.90;;;;;;5030909;28;20103;-73
2022/05/19 01:04:17;;;;;;;28.42;20.30;;;17.70;99.90;;;;;;5013528;28;20073;-73
2022/05/19 01:06:45;;;;;;;28.17;20.50;;;17.70;99.90;;;;;;5030618;28;20057;-73
2022/05/19 01:09:14;;;;;;;29.65;21.40;;;17.60;99.90;;;;;;5014674;28;20046;-74
2022/05/19 01:11:41;;;;;;;28.30;20.33;;;17.50;99.90;;;;;;5014317;28;20513;-73
2022/05/19 01:14:07;;;;;;;30.35;21.13;;;17.40;99.90;;;;;;4997753;28;20049;-74
2022/05/19 01:16:33;;;;;;;29.33;20.70;;;17.40;99.90;;;;;;5015050;28;20042;-74
2022/05/19 01:19:00;;;;;;;28.00;21.00;;;17.30;99.90;;;;;;5014988;28;20064;-73
2022/05/19 01:21:28;;;;;;;30.92;21.00;;;17.30;99.90;;;;;;5014177;28;20430;-73
2022/05/19 01:24:19;;;;;;;29.17;20.17;;;17.20;99.90;;;;;;5014311;28;20518;-74
2022/05/19 01:26:53;;;;;;;26.75;20.30;;;17.20;99.90;;;;;;5015237;28;20065;-74
2022/05/19 01:29:23;;;;;;;30.13;22.13;;;17.10;99.90;;;;;;5013371;28;20121;-74
2022/05/19 01:31:54;;;;;;;29.27;20.80;;;17.10;99.90;;;;;;5014347;28;20050;-74
2022/05/19 01:34:24;;;;;;;31.60;20.42;;;17.10;99.90;;;;;;5014238;28;20056;-73
2022/05/19 01:36:50;;;;;;;35.40;21.65;;;17.00;99.90;;;;;;5014004;28;20053;-74
2022/05/19 01:39:22;;;;;;;27.58;20.88;;;16.90;99.90;;;;;;5014285;28;20046;-74
2022/05/19 01:42:03;;;;;;;32.15;21.27;;;16.90;99.90;;;;;;5013034;28;20050;-74
2022/05/19 01:44:47;;;;;;;30.63;22.25;;;16.90;99.90;;;;;;5013322;28;20056;-74
2022/05/19 01:47:37;;;;;;;25.27;19.80;;;16.90;99.90;;;;;;5013689;28;20050;-74
2022/05/19 01:50:27;;;;;;;29.77;21.08;;;16.90;99.90;;;;;;5013783;28;20124;-74
2022/05/19 01:52:57;;;;;;;27.08;20.42;;;16.80;99.90;;;;;;5012420;28;20545;-74
2022/05/19 01:55:34;;;;;;;31.15;21.50;;;16.70;99.90;;;;;;5029203;28;20125;-73
2022/05/19 01:58:24;;;;;;;29.33;21.10;;;16.70;99.90;;;;;;5013275;28;20085;-74
2022/05/19 02:00:55;;;;;;;31.52;21.02;;;16.70;99.90;;;;;;5013749;28;20053;-73
2022/05/19 02:03:29;;;;;;;29.25;21.65;;;16.70;99.90;;;;;;4996460;28;20497;-73
2022/05/19 02:06:18;;;;;;;26.25;20.92;;;16.70;99.90;;;;;;5013804;28;20069;-73
2022/05/19 02:08:47;;;;;;;29.70;21.65;;;16.70;99.90;;;;;;5012981;28;20065;-74
2022/05/19 02:11:19;;;;;;;30.65;22.77;;;16.70;99.90;;;;;;5013007;28;20136;-73
2022/05/19 02:13:45;;;;;;;33.08;23.33;;;16.70;99.90;;;;;;5012773;28;20478;-73
2022/05/19 02:16:14;;;;;;;31.73;21.98;;;16.60;99.90;;;;;;5013183;28;20057;-74
2022/05/19 02:18:42;;;;;;;28.73;22.02;;;16.60;99.90;;;;;;5013938;28;20124;-73
2022/05/19 02:21:08;;;;;;;34.72;22.70;;;16.50;99.90;;;;;;5013603;28;20403;-73
2022/05/19 02:23:35;;;;;;;32.33;21.38;;;16.50;99.90;;;;;;5013499;28;20042;-73
2022/05/19 02:26:02;;;;;;;32.85;22.33;;;16.40;99.90;;;;;;5013819;28;20054;-74
2022/05/19 02:28:35;;;;;;;28.13;21.73;;;16.40;99.90;;;;;;5014287;28;20128;-74
2022/05/19 02:31:01;;;;;;;31.10;23.77;;;16.40;99.90;;;;;;5013581;28;20056;-74
2022/05/19 02:33:28;;;;;;;32.90;23.98;;;16.40;99.90;;;;;;4995929;28;20042;-74
2022/05/19 02:35:53;;;;;;;31.98;24.40;;;16.30;99.90;;;;;;5013164;28;20491;-73
2022/05/19 02:38:21;;;;;;;36.67;23.98;;;16.30;99.90;;;;;;5012470;28;20046;-74
2022/05/19 02:40:48;;;;;;;30.15;22.65;;;16.30;99.90;;;;;;5028916;28;20054;-74
2022/05/19 02:43:15;;;;;;;31.98;22.92;;;16.30;99.90;;;;;;5013321;28;20046;-74
2022/05/19 02:45:42;;;;;;;29.63;22.80;;;16.30;99.90;;;;;;5013101;28;20058;-74
2022/05/19 02:48:09;;;;;;;33.00;23.67;;;16.30;99.90;;;;;;5013477;28;20093;-74
2022/05/19 02:50:36;;;;;;;31.10;22.20;;;16.30;99.90;;;;;;5013444;28;20050;-74
2022/05/19 02:53:03;;;;;;;30.77;23.15;;;16.30;99.90;;;;;;5013529;28;20097;-73
2022/05/19 02:55:29;;;;;;;32.53;23.98;;;16.30;99.90;;;;;;5014449;28;20064;-73
2022/05/19 02:57:55;;;;;;;31.40;23.13;;;16.30;99.90;;;;;;5013689;28;20046;-73
2022/05/19 03:00:23;;;;;;;32.58;23.83;;;16.30;99.90;;;;;;5013255;28;20081;-73
2022/05/19 03:02:49;;;;;;;34.70;24.15;;;16.30;99.90;;;;;;5013167;28;20065;-74
2022/05/19 03:05:24;;;;;;;34.00;23.55;;;16.30;99.90;;;;;;5012001;28;20380;-73
2022/05/19 03:07:50;;;;;;;36.45;24.75;;;16.30;99.90;;;;;;5012221;28;20100;-73
2022/05/19 03:10:17;;;;;;;29.80;23.60;;;16.30;99.90;;;;;;5013188;28;20050;-73
2022/05/19 03:12:43;;;;;;;36.53;24.70;;;16.30;99.90;;;;;;5012445;28;20050;-73
2022/05/19 03:15:10;;;;;;;39.22;25.48;;;16.20;99.90;;;;;;5013163;28;20122;-73
2022/05/19 03:17:36;;;;;;;36.35;24.98;;;16.20;99.90;;;;;;5011933;28;20050;-74
2022/05/19 03:20:03;;;;;;;36.63;25.77;;;16.20;99.90;;;;;;5012837;28;20077;-73
2022/05/19 03:22:29;;;;;;;31.77;24.38;;;16.20;99.90;;;;;;5012749;28;20132;-73
2022/05/19 03:24:55;;;;;;;36.80;25.15;;;16.20;99.90;;;;;;5012287;28;20185;-73
2022/05/19 03:27:21;;;;;;;34.20;25.17;;;16.20;99.90;;;;;;5012948;28;20446;-73
2022/05/19 03:29:48;;;;;;;35.28;25.05;;;16.10;99.90;;;;;;5015092;28;20205;-74
2022/05/19 03:32:14;;;;;;;33.53;25.55;;;16.20;99.90;;;;;;5015946;28;20364;-74
2022/05/19 03:34:40;;;;;;;36.05;24.92;;;16.10;99.90;;;;;;5016592;28;20074;-73
2022/05/19 03:37:06;;;;;;;35.47;24.67;;;16.10;99.90;;;;;;5016427;28;20124;-73
2022/05/19 03:39:34;;;;;;;32.40;24.45;;;16.10;99.90;;;;;;5016367;28;20057;-73
2022/05/19 03:41:59;;;;;;;32.38;24.50;;;16.20;99.90;;;;;;5016366;28;20061;-73
2022/05/19 03:44:25;;;;;;;33.38;23.90;;;16.20;99.90;;;;;;5014966;28;20045;-73
2022/05/19 03:46:51;;;;;;;34.50;25.10;;;16.20;99.90;;;;;;5015798;28;20050;-73
2022/05/19 03:49:17;;;;;;;34.05;24.45;;;16.20;99.90;;;;;;5016002;28;20360;-74
2022/05/19 03:51:43;;;;;;;35.35;24.85;;;16.20;99.90;;;;;;5016104;28;20511;-73
2022/05/19 03:54:10;;;;;;;30.63;23.80;;;16.20;99.90;;;;;;5015799;28;20046;-73
2022/05/19 03:56:36;;;;;;;33.85;24.50;;;16.10;99.90;;;;;;5015365;28;20085;-73
2022/05/19 03:59:02;;;;;;;32.67;24.30;;;16.20;99.90;;;;;;5016012;28;20085;-73
2022/05/19 04:01:27;;;;;;;36.78;25.25;;;16.20;99.90;;;;;;5015269;28;20049;-73
2022/05/19 04:03:54;;;;;;;32.28;23.65;;;16.10;99.90;;;;;;5016678;28;20038;-74
2022/05/19 04:06:20;;;;;;;34.97;25.42;;;16.20;99.90;;;;;;5016430;28;20107;-73
2022/05/19 04:08:46;;;;;;;31.13;24.83;;;16.20;99.90;;;;;;5015140;28;20051;-73
2022/05/19 04:11:12;;;;;;;38.97;26.45;;;16.20;99.90;;;;;;5014579;28;20514;-73
2022/05/19 04:13:38;;;;;;;36.03;25.67;;;16.10;99.90;;;;;;5015787;28;20041;-73
2022/05/19 04:16:04;;;;;;;36.72;24.95;;;16.20;99.90;;;;;;5015965;28;20474;-73
2022/05/19 04:18:29;;;;;;;33.35;24.77;;;16.20;99.90;;;;;;4998245;28;20431;-73
2022/05/19 04:20:55;;;;;;;33.72;25.23;;;16.20;99.90;;;;;;5014869;28;20188;-73
2022/05/19 04:23:22;;;;;;;36.40;25.30;;;16.20;99.90;;;;;;5015386;28;20046;-73
2022/05/19 04:25:48;;;;;;;32.00;24.30;;;16.20;99.90;;;;;;4998336;28;20046;-73
2022/05/19 04:28:14;;;;;;;34.75;24.83;;;16.20;99.90;;;;;;5016232;28;20056;-73
2022/05/19 04:30:41;;;;;;;34.90;25.20;;;16.30;99.90;;;;;;5013946;28;20494;-73
2022/05/19 04:33:07;;;;;;;33.20;24.25;;;16.30;99.90;;;;;;5015195;28;20085;-73
2022/05/19 04:35:34;;;;;;;34.15;25.27;;;16.30;99.90;;;;;;5014230;28;20054;-73
2022/05/19 04:38:04;;;;;;;33.50;24.50;;;16.40;99.90;;;;;;5014566;28;20058;-74
2022/05/19 04:40:30;;;;;;;36.72;25.08;;;16.50;99.90;;;;;;5015445;28;20394;-73
2022/05/19 04:42:55;;;;;;;30.63;24.27;;;16.50;99.90;;;;;;5015121;28;20102;-74
2022/05/19 04:45:21;;;;;;;30.88;23.88;;;16.60;99.90;;;;;;5015176;28;20478;-73
2022/05/19 04:47:47;;;;;;;33.63;24.25;;;16.70;99.90;;;;;;5015143;28;20057;-73
2022/05/19 04:50:13;;;;;;;34.33;24.55;;;16.80;99.90;;;;;;5015420;28;20057;-73
2022/05/19 04:52:39;;;;;;;29.60;22.98;;;16.80;99.90;;;;;;5014169;28;20130;-73
2022/05/19 04:55:07;;;;;;;32.60;23.92;;;17.00;99.90;;;;;;5015002;28;20046;-73
2022/05/19 04:57:33;;;;;;;33.03;23.88;;;17.00;99.90;;;;;;5014639;28;20487;-73
2022/05/19 04:59:58;;;;;;;35.28;23.67;;;17.10;99.90;;;;;;5013714;28;20060;-74
2022/05/19 05:02:24;;;;;;;34.92;25.08;;;17.20;99.90;;;;;;5014879;28;20042;-74
2022/05/19 05:04:50;;;;;;;33.67;23.92;;;17.20;99.90;;;;;;5013621;28;20046;-74
2022/05/19 05:07:15;;;;;;;33.72;24.75;;;17.20;99.90;;;;;;5014777;28;20131;-74
2022/05/19 05:09:41;;;;;;;29.58;22.17;;;17.20;99.90;;;;;;5013698;28;20108;-74
2022/05/19 05:12:08;;;;;;;25.75;20.95;;;17.30;99.90;;;;;;5014197;28;20447;-74
2022/05/19 05:14:33;;;;;;;26.75;19.83;;;17.30;99.90;;;;;;5014651;28;20069;-74
2022/05/19 05:16:59;;;;;;;25.90;19.63;;;17.50;99.90;;;;;;5013754;28;20482;-74
2022/05/19 05:19:25;;;;;;;25.13;19.08;;;17.70;99.90;;;;;;5013596;28;20053;-75
2022/05/19 05:21:58;;;;;;;26.48;18.55;;;17.80;99.90;;;;;;5014915;28;20049;-75
2022/05/19 05:24:25;;;;;;;21.10;17.50;;;18.00;99.90;;;;;;5013580;28;20081;-76
2022/05/19 05:26:51;;;;;;;22.45;17.85;;;18.20;99.90;;;;;;5014340;28;20054;-75
2022/05/19 05:29:16;;;;;;;23.80;17.90;;;18.30;99.90;;;;;;5014008;28;20053;-76
2022/05/19 05:31:42;;;;;;;23.00;17.08;;;18.50;99.90;;;;;;5014273;28;20487;-75
2022/05/19 05:34:08;;;;;;;21.15;17.42;;;18.60;99.90;;;;;;5014598;28;20124;-75
2022/05/19 05:36:34;;;;;;;21.13;17.40;;;18.70;99.90;;;;;;5013092;28;20551;-75
2022/05/19 05:39:00;;;;;;;19.55;17.42;;;18.90;99.90;;;;;;5013282;28;20542;-76
2022/05/19 05:41:25;;;;;;;21.05;17.73;;;19.00;99.90;;;;;;5014632;28;20069;-75
2022/05/19 05:43:51;;;;;;;21.65;17.55;;;19.10;99.90;;;;;;5029516;28;20475;-75
2022/05/19 05:46:17;;;;;;;21.58;18.00;;;19.10;99.90;;;;;;5013901;28;20065;-75
2022/05/19 05:48:45;;;;;;;21.05;18.08;;;19.10;99.90;;;;;;5029133;28;20092;-77
2022/05/19 05:51:13;;;;;;;21.70;18.40;;;19.10;99.90;;;;;;5013238;28;20056;-75
2022/05/19 05:53:40;;;;;;;20.20;17.02;;;19.00;99.90;;;;;;5013838;28;20541;-77
2022/05/19 05:56:08;;;;;;;20.42;16.80;;;19.00;99.90;;;;;;5013548;28;20052;-75
2022/05/19 05:58:34;;;;;;;21.38;16.10;;;19.00;99.90;;;;;;5013862;28;20054;-75
2022/05/19 06:01:07;;;;;;;19.63;15.57;;;19.20;99.90;;;;;;4996939;28;20085;-76
2022/05/19 06:03:33;;;;;;;19.42;15.55;;;19.30;99.90;;;;;;5013787;28;20095;-75
2022/05/19 06:06:00;;;;;;;18.15;14.85;;;19.40;99.90;;;;;;4996688;28;20406;-76
2022/05/19 06:08:25;;;;;;;17.75;13.77;;;19.50;99.90;;;;;;5014012;28;20046;-75
2022/05/19 06:10:52;;;;;;;16.33;13.77;;;19.70;99.90;;;;;;5013541;28;20482;-73
2022/05/19 06:13:17;;;;;;;15.35;13.30;;;19.80;99.90;;;;;;5014900;28;20371;-73
2022/05/19 06:15:43;;;;;;;15.68;13.45;;;19.70;99.90;;;;;;5013727;28;20049;-73
2022/05/19 06:18:10;;;;;;;17.63;13.85;;;19.70;99.90;;;;;;5014712;28;20050;-73
2022/05/19 06:20:36;;;;;;;16.50;13.57;;;19.70;99.90;;;;;;5014978;28;20046;-73
2022/05/19 06:23:04;;;;;;;16.70;13.77;;;19.60;99.90;;;;;;5013918;28;20042;-73
2022/05/19 06:25:30;;;;;;;15.38;12.82;;;19.70;99.90;;;;;;5013534;28;20621;-73
2022/05/19 06:27:57;;;;;;;17.83;14.10;;;19.70;99.90;;;;;;5014081;28;20594;-74
2022/05/19 06:30:23;;;;;;;14.30;12.43;;;19.70;99.90;;;;;;5013382;28;20061;-73
2022/05/19 06:32:49;;;;;;;14.32;12.23;;;19.70;99.90;;;;;;5013155;28;20037;-73
2022/05/19 06:35:19;;;;;;;14.23;12.32;;;19.80;99.90;;;;;;5013594;28;20060;-73
2022/05/19 06:37:45;;;;;;;15.52;11.75;;;20.00;99.90;;;;;;5012608;28;20470;-73
2022/05/19 06:40:13;;;;;;;14.65;11.35;;;20.00;99.90;;;;;;5013850;28;20200;-74
2022/05/19 06:42:39;;;;;;;12.68;10.02;;;20.00;99.90;;;;;;5014309;28;20185;-73
2022/05/19 06:45:06;;;;;;;13.63;9.45;;;20.10;99.90;;;;;;5013749;28;20078;-73
2022/05/19 06:47:32;;;;;;;9.93;8.35;;;20.20;99.90;;;;;;5013581;28;20430;-74
2022/05/19 06:49:58;;;;;;;11.27;8.32;;;20.30;99.90;;;;;;5013526;28;20050;-74
2022/05/19 06:52:29;;;;;;;11.35;7.85;;;20.50;99.90;;;;;;5012585;28;20046;-74
2022/05/19 06:54:57;;;;;;;8.93;7.40;;;20.80;99.90;;;;;;5012740;28;20058;-75
2022/05/19 06:57:25;;;;;;;11.10;7.90;;;21.00;99.90;;;;;;5013565;28;20455;-74
2022/05/19 06:59:51;;;;;;;9.27;7.63;;;21.10;99.90;;;;;;5013372;28;20092;-75
2022/05/19 07:02:19;;;;;;;8.77;6.55;;;21.10;99.90;;;;;;5013370;28;20052;-75
2022/05/19 07:04:45;;;;;;;8.68;6.47;;;21.10;99.90;;;;;;5017028;28;20041;-74
2022/05/19 07:07:12;;;;;;;7.25;5.82;;;21.20;99.90;;;;;;5017009;28;20088;-75
2022/05/19 07:09:38;;;;;;;9.18;6.20;;;21.10;99.90;;;;;;5017039;28;20050;-74
2022/05/19 07:12:05;;;;;;;8.05;5.88;;;21.10;99.90;;;;;;5016885;28;20050;-74
2022/05/19 07:14:32;;;;;;;6.90;5.30;;;21.00;99.90;;;;;;5017022;28;20128;-78
2022/05/19 07:16:57;;;;;;;7.30;5.85;;;21.00;99.90;;;;;;5016453;28;20348;-76
2022/05/19 07:22:14;;;;;;;7.53;5.00;;;21.10;99.90;;;;;;5017235;28;20046;-77
2022/05/19 07:24:40;;;;;;;7.43;5.68;;;21.20;99.90;;;;;;5016218;28;20037;-78
2022/05/19 07:27:05;;;;;;;7.55;5.47;;;21.30;99.90;;;;;;5016671;28;20065;-78
2022/05/19 07:29:31;;;;;;;7.85;5.32;;;21.40;99.90;;;;;;5016661;28;20042;-78
2022/05/19 07:32:00;;;;;;;7.70;5.43;;;21.60;99.90;;;;;;4998589;28;20117;-74
2022/05/19 07:34:28;;;;;;;7.45;4.80;;;21.60;99.90;;;;;;5016469;28;20037;-75
2022/05/19 07:36:55;;;;;;;7.80;5.72;;;21.70;99.90;;;;;;5016241;28;20052;-78
2022/05/19 07:39:21;;;;;;;9.00;5.50;;;21.60;99.90;;;;;;5015227;28;20050;-77
2022/05/19 07:41:47;;;;;;;7.63;5.70;;;21.60;99.90;;;;;;5016258;28;20467;-74
2022/05/19 07:44:14;;;;;;;6.80;5.60;;;21.50;99.90;;;;;;5016169;28;20037;-73
2022/05/19 07:46:40;;;;;;;6.93;5.05;;;21.40;99.90;;;;;;5016125;28;20470;-73
2022/05/19 07:49:07;;;;;;;8.90;5.40;;;21.40;99.90;;;;;;5016806;28;20378;-76
2022/05/19 07:51:36;;;;;;;6.78;5.00;;;21.30;99.90;;;;;;5016060;28;20483;-76
2022/05/19 07:54:14;;;;;;;8.27;5.72;;;21.30;99.90;;;;;;5015822;28;20331;-75
2022/05/19 07:56:41;;;;;;;7.53;5.22;;;21.20;99.90;;;;;;5016591;28;20046;-76
2022/05/19 07:59:08;;;;;;;10.88;8.00;;;21.20;99.90;;;;;;5016047;28;20077;-76
2022/05/19 08:01:34;;;;;;;11.70;8.05;;;21.10;99.90;;;;;;5015695;28;20562;-77
2022/05/19 08:04:01;;;;;;;10.75;9.07;;;21.00;99.90;;;;;;5016602;28;20168;-76
2022/05/19 08:06:29;;;;;;;13.52;9.13;;;21.00;99.90;;;;;;5015672;28;20046;-76
2022/05/19 08:08:58;;;;;;;15.93;9.98;;;20.90;99.90;;;;;;5014914;28;20048;-74
2022/05/19 08:11:24;;;;;;;19.83;10.68;;;20.90;99.90;;;;;;5016451;28;20129;-74
2022/05/19 08:16:35;;;;;;;15.02;9.63;;;20.70;99.90;;;;;;5015588;28;20045;-73
2022/05/19 08:19:02;;;;;;;15.18;9.73;;;20.50;99.90;;;;;;5016344;28;20116;-73
2022/05/19 08:21:27;;;;;;;11.80;9.68;;;20.40;99.90;;;;;;5015628;28;20103;-74
2022/05/19 08:23:53;;;;;;;11.63;9.02;;;20.40;99.90;;;;;;5015932;28;20046;-74
2022/05/19 08:26:20;;;;;;;14.88;10.10;;;20.30;99.90;;;;;;5015782;28;20046;-72
2022/05/19 08:28:47;;;;;;;14.50;10.18;;;20.20;99.90;;;;;;5015427;28;20057;-74
2022/05/19 08:31:20;;;;;;;13.75;9.80;;;20.20;99.90;;;;;;5015013;28;20060;-74
2022/05/19 08:33:48;;;;;;;13.23;9.38;;;20.20;99.90;;;;;;5015361;28;20038;-73
2022/05/19 08:36:14;;;;;;;12.55;10.40;;;20.20;99.90;;;;;;5015492;28;20355;-72
2022/05/19 08:38:41;;;;;;;14.05;10.25;;;20.30;99.90;;;;;;5014888;28;20482;-72
2022/05/19 08:41:28;;;;;;;14.95;11.90;;;20.30;99.90;;;;;;5014743;28;20576;-75
2022/05/19 08:44:10;;;;;;;17.45;12.35;;;20.40;99.90;;;;;;5014900;28;20042;-74
2022/05/19 08:46:39;;;;;;;16.23;12.55;;;20.40;99.90;;;;;;5015196;28;20042;-74
2022/05/19 08:49:12;;;;;;;17.80;13.43;;;20.50;99.90;;;;;;5016164;28;20053;-74
2022/05/19 08:51:53;;;;;;;15.23;11.75;;;20.50;99.90;;;;;;5013735;28;20057;-74
2022/05/19 08:54:23;;;;;;;15.68;13.02;;;20.70;99.90;;;;;;5015745;28;20034;-73
2022/05/19 08:57:20;;;;;;;18.55;13.90;;;20.70;99.90;;;;;;5014746;28;20405;-73
2022/05/19 09:00:05;;;;;;;18.08;13.68;;;20.80;99.90;;;;;;4997265;28;20459;-73
2022/05/19 09:03:04;;;;;;;15.77;13.00;;;20.80;99.90;;;;;;5014951;28;20042;-73
2022/05/19 09:05:51;;;;;;;16.38;13.13;;;20.80;99.90;;;;;;5015076;28;20042;-74
2022/05/19 09:08:52;;;;;;;17.77;14.38;;;20.90;99.90;;;;;;5015145;28;20103;-73
2022/05/19 09:11:21;;;;;;;17.95;13.52;;;20.90;99.90;;;;;;4991773;28;20544;-74
2022/05/19 09:14:03;;;;;;;17.25;13.65;;;21.00;99.90;;;;;;5014164;28;20479;-73
2022/05/19 09:16:34;;;;;;;15.80;12.68;;;21.00;99.90;;;;;;5014549;28;20085;-73
2022/05/19 09:19:30;;;;;;;16.73;13.30;;;21.10;99.90;;;;;;5014190;28;20084;-75
2022/05/19 09:22:35;;;;;;;17.33;13.97;;;21.20;99.90;;;;;;5014508;28;20042;-75
2022/05/19 09:25:09;;;;;;;16.75;13.50;;;21.40;99.90;;;;;;4973119;28;20519;-75
2022/05/19 09:27:40;;;;;;;18.23;13.75;;;21.50;99.90;;;;;;4973344;28;20055;-73
2022/05/19 09:30:29;;;;;;;17.00;13.55;;;21.60;99.90;;;;;;4996747;28;20103;-73
2022/05/19 09:32:57;;;;;;;20.25;15.35;;;21.60;99.90;;;;;;5014943;28;20046;-72
2022/05/19 09:35:55;;;;;;;17.55;14.23;;;21.70;99.90;;;;;;5012878;28;20053;-72
2022/05/19 09:38:37;;;;;;;17.70;14.38;;;21.70;99.90;;;;;;5014038;28;20053;-72
2022/05/19 09:41:22;;;;;;;18.33;13.82;;;21.80;99.90;;;;;;5014136;28;20107;-73
2022/05/19 09:43:56;;;;;;;16.95;14.98;;;21.80;99.90;;;;;;5013895;28;20355;-73
2022/05/19 09:46:23;;;;;;;17.63;14.90;;;21.90;99.90;;;;;;5013348;28;20080;-71
2022/05/19 09:49:05;;;;;;;17.58;14.20;;;22.00;99.90;;;;;;5014938;28;20050;-76
2022/05/19 09:51:43;;;;;;;16.23;14.52;;;22.10;99.90;;;;;;5013832;28;20042;-74
2022/05/19 09:54:12;;;;;;;16.65;13.38;;;22.20;99.90;;;;;;5014176;28;20138;-74
2022/05/19 09:56:45;;;;;;;16.30;12.80;;;22.20;99.90;;;;;;5014423;28;20041;-74
2022/05/19 09:59:17;;;;;;;12.23;10.40;;;22.30;99.90;;;;;;5013909;28;20044;-74
2022/05/19 10:01:47;;;;;;;13.63;10.27;;;22.30;99.90;;;;;;5014036;28;20419;-74
2022/05/19 10:04:25;;;;;;;13.10;9.85;;;22.40;99.90;;;;;;5013815;28;20455;-76
2022/05/19 10:07:07;;;;;;;13.43;11.18;;;22.50;99.90;;;;;;5013305;28;20381;-75
2022/05/19 10:09:39;;;;;;;14.00;10.82;;;22.60;99.90;;;;;;5014207;28;20046;-75
2022/05/19 10:12:13;;;;;;;14.13;10.93;;;22.80;99.90;;;;;;5013795;28;20077;-76
2022/05/19 10:14:40;;;;;;;13.02;10.07;;;23.00;99.90;;;;;;5013939;28;20162;-75
2022/05/19 10:17:12;;;;;;;13.82;10.55;;;23.10;99.90;;;;;;5012450;28;20084;-76
2022/05/19 10:19:50;;;;;;;13.45;10.52;;;23.10;99.90;;;;;;5013250;28;20046;-75
2022/05/19 10:22:37;;;;;;;12.98;10.60;;;23.20;99.90;;;;;;5013567;28;20048;-74
2022/05/19 10:25:14;;;;;;;14.55;10.52;;;23.20;99.90;;;;;;5013599;28;20132;-75
2022/05/19 10:31:12;;;;;;;11.07;8.82;;;23.50;99.90;;;;;;5012491;28;20185;-78
2022/05/19 10:34:02;;;;;;;12.77;9.32;;;23.50;99.90;;;;;;5012732;28;20049;-75
2022/05/19 10:36:54;;;;;;;12.63;9.43;;;23.50;99.90;;;;;;5012820;28;20049;-76
2022/05/19 10:39:54;;;;;;;10.05;8.27;;;23.50;99.90;;;;;;5017833;28;20046;-74
2022/05/19 10:42:47;;;;;;;8.13;6.75;;;23.50;99.90;;;;;;5017426;28;20050;-74
2022/05/19 10:45:31;;;;;;;8.90;7.05;;;23.50;99.90;;;;;;5016674;28;20375;-74
2022/05/19 10:48:08;;;;;;;8.30;6.70;;;23.60;99.90;;;;;;5017364;28;20482;-74
2022/05/19 10:50:45;;;;;;;11.38;7.60;;;23.60;99.90;;;;;;5017642;28;20049;-73
2022/05/19 10:53:28;;;;;;;9.02;6.78;;;23.60;99.90;;;;;;5017550;28;20409;-73
2022/05/19 10:56:16;;;;;;;10.65;7.28;;;23.50;99.90;;;;;;5017045;28;20097;-73
2022/05/19 10:59:22;;;;;;;9.55;7.15;;;23.50;99.90;;;;;;5017785;28;20045;-73
2022/05/19 11:02:07;;;;;;;7.90;6.43;;;23.50;99.90;;;;;;5017680;28;20042;-73
2022/05/19 11:05:20;;;;;;;7.80;6.38;;;23.40;99.90;;;;;;5032290;28;20048;-73
2022/05/19 11:07:53;;;;;;;6.88;5.80;;;23.50;99.90;;;;;;5016321;28;20176;-74
2022/05/19 11:10:37;;;;;;;8.05;5.50;;;23.60;99.90;;;;;;5016953;28;20540;-74
2022/05/19 11:13:22;;;;;;;7.05;5.78;;;23.70;99.90;;;;;;5016790;28;20042;-73
2022/05/19 11:16:24;;;;;;;7.25;4.20;;;23.90;99.90;;;;;;5009319;28;20486;-73
2022/05/19 11:19:18;;;;;;;5.40;4.00;;;24.00;99.90;;;;;;4993854;28;20057;-73
2022/05/19 11:22:11;;;;;;;6.10;3.40;;;24.20;99.90;;;;;;5012313;28;20129;-73
2022/05/19 11:27:48;;;;;;;5.45;3.83;;;24.30;99.90;;;;;;5016694;28;20053;-75
2022/05/19 11:30:19;;;;;;;4.95;3.33;;;24.30;99.90;;;;;;5015907;28;20054;-76
2022/05/19 11:32:48;;;;;;;4.85;3.47;;;24.40;99.90;;;;;;5015939;28;20056;-79
2022/05/19 11:35:22;;;;;;;4.00;2.60;;;24.50;99.90;;;;;;5015481;28;20502;-75
2022/05/19 11:37:57;;;;;;;4.65;2.60;;;24.70;99.90;;;;;;5017246;28;20045;-75
2022/05/19 11:40:37;;;;;;;4.88;3.00;;;24.80;99.90;;;;;;5016407;28;20128;-75
2022/05/19 11:43:29;;;;;;;3.67;2.20;;;24.90;99.90;;;;;;5016186;28;20053;-78
2022/05/19 11:46:04;;;;;;;4.05;2.35;;;25.00;99.90;;;;;;5016872;28;20050;-77
2022/05/19 11:58:09;;;;;;;3.42;2.50;;;25.20;99.90;;;;;;5016176;28;20054;-76
2022/05/19 12:00:52;;;;;;;4.35;3.47;;;25.20;99.90;;;;;;5016108;28;20116;-76
2022/05/19 12:03:39;;;;;;;4.20;2.80;;;25.20;99.90;;;;;;5014694;28;20121;-74
2022/05/19 12:06:13;;;;;;;5.28;3.38;;;25.20;99.90;;;;;;5016718;28;20446;-76
2022/05/19 12:08:40;;;;;;;4.47;3.50;;;25.30;99.90;;;;;;5015921;28;20093;-75
2022/05/19 12:11:19;;;;;;;3.80;2.47;;;25.30;99.90;;;;;;5016166;28;20053;-72
2022/05/19 12:14:18;;;;;;;3.22;2.00;;;25.40;99.90;;;;;;5016591;28;20069;-76
2022/05/19 12:16:55;;;;;;;3.63;2.58;;;25.40;99.90;;;;;;5010167;28;20057;-76
2022/05/19 12:19:35;;;;;;;3.22;2.60;;;25.40;99.90;;;;;;5016265;28;20069;-73
2022/05/19 12:22:17;;;;;;;4.00;2.60;;;25.40;99.90;;;;;;5015546;28;20053;-73
2022/05/19 12:24:54;;;;;;;4.85;2.70;;;25.40;99.90;;;;;;5015678;28;20044;-73
2022/05/19 12:27:23;;;;;;;4.70;2.78;;;25.40;99.90;;;;;;5015358;28;20061;-73
2022/05/19 12:33:27;;;;;;;4.13;2.78;;;25.40;99.90;;;;;;5002523;28;20100;-73
2022/05/19 12:35:59;;;;;;;4.70;2.42;;;25.30;99.90;;;;;;5015788;28;20049;-73
2022/05/19 12:38:37;;;;;;;4.70;3.00;;;25.30;99.90;;;;;;5016147;28;20042;-73
2022/05/19 12:41:08;;;;;;;4.20;2.90;;;25.20;99.90;;;;;;5014254;28;20052;-73
2022/05/19 12:43:48;;;;;;;3.25;2.70;;;25.20;99.90;;;;;;5014096;28;20049;-73
2022/05/19 12:46:47;;;;;;;4.13;2.50;;;25.20;99.90;;;;;;5016003;28;20050;-73
2022/05/19 12:49:25;;;;;;;3.63;2.80;;;25.20;99.90;;;;;;4981615;28;20084;-73
2022/05/19 12:51:58;;;;;;;4.18;2.55;;;25.10;99.90;;;;;;5015495;28;20050;-72
2022/05/19 12:54:27;;;;;;;3.38;2.67;;;25.10;99.90;;;;;;5015123;28;20038;-73
2022/05/19 12:56:59;;;;;;;3.67;2.42;;;25.00;99.90;;;;;;5015681;28;20387;-73
2022/05/19 12:59:51;;;;;;;4.45;2.42;;;25.00;99.90;;;;;;5015005;28;20050;-73
2022/05/19 13:02:32;;;;;;;2.80;2.25;;;24.80;99.90;;;;;;5013597;28;20121;-73
2022/05/19 13:05:04;;;;;;;3.70;2.80;;;24.70;99.90;;;;;;5013537;28;20061;-74
2022/05/19 13:07:39;;;;;;;3.22;2.50;;;24.50;99.90;;;;;;5015504;28;20399;-74
2022/05/19 13:10:24;;;;;;;5.03;3.05;;;24.30;99.90;;;;;;5014709;28;20049;-72
2022/05/19 13:13:13;;;;;;;9.73;4.93;;;24.10;99.90;;;;;;5015733;28;20121;-73
2022/05/19 13:16:13;;;;;;;10.52;5.45;;;23.40;99.90;;;;;;5014685;28;20426;-73
2022/05/19 13:18:46;;;;;;;10.68;6.03;;;21.70;99.90;;;;;;5015293;28;20046;-74
2022/05/19 13:21:24;;;;;;;12.07;6.20;;;20.60;99.90;;;;;;5013664;28;20085;-72
2022/05/19 13:23:51;;;;;;;6.63;4.55;;;20.10;99.90;;;;;;5014866;28;20120;-72